Time;durP1;ratioP1;P1;durP2;ratioP2;P2;SDS_P1;SDS_P2;PMS_P1;PMS_P2;Temp;Humidity;BMP_temperature;BMP_pressure;BME280_temperature;BME280_humidity;BME280_pressure;Samples;Min_cycle;Max_cycle;Signal;HPM_P1;HPM_P2
2021/03/15 00:02:05;;;;;;;;;;;6.20;99.90;;;;;;5118989;27;19915;-79
2021/03/15 00:04:30;;;;;;;;;;;6.20;99.90;;;;;;5140194;27;19918;-79
2021/03/15 00:06:56;;;;;;;;;;;6.30;99.90;;;;;;5139027;27;20019;-79
2021/03/15 00:09:21;;;;;;;;;;;6.30;99.90;;;;;;5138960;27;19916;-78
2021/03/15 00:11:47;;;;;;;;;;;6.30;99.90;;;;;;5137985;27;19957;-79
2021/03/15 00:14:12;;;;;;;;;;;6.30;99.90;;;;;;5138590;27;19915;-79
2021/03/15 00:16:38;;;;;;;;;;;6.30;99.90;;;;;;5138669;27;19919;-79
2021/03/15 00:19:03;;;;;;;;;;;6.30;99.90;;;;;;5138036;27;19912;-79
2021/03/15 00:21:29;;;;;;;;;;;6.30;99.90;;;;;;5137890;27;20268;-79
2021/03/15 00:23:54;;;;;;;;;;;6.30;99.90;;;;;;5121136;27;19994;-79
2021/03/15 00:26:20;;;;;;;;;;;6.30;99.90;;;;;;5139140;27;19911;-79
2021/03/15 00:28:45;;;;;;;;;;;6.30;99.90;;;;;;5140341;27;19930;-79
2021/03/15 00:31:11;;;;;;;;;;;6.30;99.90;;;;;;5137507;27;19958;-79
2021/03/15 00:33:36;;;;;;;;;;;6.30;99.90;;;;;;5120764;27;19922;-78
2021/03/15 00:36:02;;;;;;;;;;;6.30;99.90;;;;;;5137985;27;19922;-79
2021/03/15 00:38:28;;;;;;;;;;;6.30;99.90;;;;;;5120532;27;20402;-79
2021/03/15 00:40:53;;;;;;;;;;;6.30;99.90;;;;;;5120649;27;20363;-79
2021/03/15 00:43:19;;;;;;;;;;;6.30;99.90;;;;;;5119939;27;20336;-79
2021/03/15 00:45:44;;;;;;;;;;;6.30;99.90;;;;;;5128393;27;19919;-78
2021/03/15 00:48:09;;;;;;;;;;;6.30;99.90;;;;;;5142537;27;19911;-79
2021/03/15 00:50:41;;;;;;;;;;;6.30;99.90;;;;;;5120907;27;19922;-78
2021/03/15 00:53:07;;;;;;;;;;;6.30;99.90;;;;;;5115237;27;19912;-79
2021/03/15 00:55:33;;;;;;;;;;;6.30;99.90;;;;;;5138003;27;19964;-79
2021/03/15 00:57:58;;;;;;;;;;;6.30;99.90;;;;;;5118927;27;19946;-79
2021/03/15 01:00:26;;;;;;;;;;;6.30;99.90;;;;;;5120164;27;19994;-79
2021/03/15 01:02:51;;;;;;;;;;;6.30;99.90;;;;;;5119443;27;19911;-79
2021/03/15 01:05:18;;;;;;;;;;;6.30;99.90;;;;;;5136385;27;19918;-79
2021/03/15 01:07:44;;;;;;;;;;;6.30;99.90;;;;;;5119744;27;20523;-79
2021/03/15 01:10:11;;;;;;;;;;;6.30;99.90;;;;;;5136923;27;19919;-79
2021/03/15 01:12:36;;;;;;;;;;;6.30;99.90;;;;;;5137383;27;20337;-79
2021/03/15 01:15:06;;;;;;;;;;;6.20;99.90;;;;;;5118501;27;19912;-79
2021/03/15 01:17:32;;;;;;;;;;;6.20;99.90;;;;;;5136953;27;20371;-79
2021/03/15 01:19:57;;;;;;;;;;;6.20;99.90;;;;;;5119722;27;19964;-79
2021/03/15 01:22:23;;;;;;;;;;;6.20;99.90;;;;;;5118267;27;20034;-79
2021/03/15 01:24:48;;;;;;;;;;;6.20;99.90;;;;;;5136533;27;19922;-79
2021/03/15 01:27:14;;;;;;;;;;;6.30;99.90;;;;;;5136490;27;19912;-79
2021/03/15 01:29:39;;;;;;;;;;;6.30;99.90;;;;;;5118936;27;19919;-79
2021/03/15 01:32:05;;;;;;;;;;;6.20;99.90;;;;;;5136090;27;20386;-79
2021/03/15 01:34:30;;;;;;;;;;;6.20;99.90;;;;;;5136109;27;20002;-80
2021/03/15 01:36:58;;;;;;;;;;;6.20;99.90;;;;;;5119236;27;19930;-78
2021/03/15 01:39:24;;;;;;;;;;;6.10;99.90;;;;;;5118365;27;19965;-79
2021/03/15 01:41:49;;;;;;;;;;;6.10;99.90;;;;;;5145895;27;19911;-78
2021/03/15 01:44:15;;;;;;;;;;;6.10;99.90;;;;;;5117677;27;19911;-79
2021/03/15 01:46:40;;;;;;;;;;;6.10;99.90;;;;;;5115454;27;19919;-79
2021/03/15 01:49:06;;;;;;;;;;;6.10;99.90;;;;;;5137896;27;19934;-79
2021/03/15 01:51:31;;;;;;;;;;;6.00;99.90;;;;;;5116218;27;19987;-79
2021/03/15 01:53:57;;;;;;;;;;;6.00;99.90;;;;;;5118759;27;19911;-79
2021/03/15 01:56:22;;;;;;;;;;;6.10;99.90;;;;;;5133811;27;19923;-79
2021/03/15 01:58:48;;;;;;;;;;;6.10;99.90;;;;;;5134023;27;19917;-79
2021/03/15 02:01:14;;;;;;;;;;;6.10;99.90;;;;;;5134921;27;19964;-78
2021/03/15 02:03:40;;;;;;;;;;;6.00;99.90;;;;;;5135883;27;19924;-79
2021/03/15 02:06:05;;;;;;;;;;;6.00;99.90;;;;;;5134931;27;19916;-79
2021/03/15 02:08:31;;;;;;;;;;;6.00;99.90;;;;;;5137550;27;19911;-79
2021/03/15 02:10:57;;;;;;;;;;;6.00;99.90;;;;;;5129713;27;19938;-79
2021/03/15 02:13:23;;;;;;;;;;;6.00;99.90;;;;;;5121950;27;19960;-79
2021/03/15 02:15:55;;;;;;;;;;;6.00;99.90;;;;;;5133279;27;19916;-79
2021/03/15 02:18:33;;;;;;;;;;;6.00;99.90;;;;;;5136730;27;19909;-79
2021/03/15 02:20:58;;;;;;;;;;;6.00;99.90;;;;;;5117342;27;20021;-79
2021/03/15 02:23:31;;;;;;;;;;;6.00;99.90;;;;;;5136814;27;19946;-79
2021/03/15 02:26:02;;;;;;;;;;;6.00;99.90;;;;;;5133299;27;19963;-79
2021/03/15 02:28:42;;;;;;;;;;;6.00;99.90;;;;;;5118143;27;19916;-79
2021/03/15 02:31:21;;;;;;;;;;;6.00;99.90;;;;;;5116431;27;20263;-80
2021/03/15 02:33:53;;;;;;;;;;;6.00;99.90;;;;;;5137800;27;19919;-79
2021/03/15 02:36:19;;;;;;;;;;;6.00;99.90;;;;;;5135323;27;19908;-79
2021/03/15 02:38:46;;;;;;;;;;;6.10;99.90;;;;;;5116660;28;19918;-79
2021/03/15 02:41:13;;;;;;;;;;;6.10;99.90;;;;;;5117750;27;20387;-79
2021/03/15 02:43:44;;;;;;;;;;;6.10;99.90;;;;;;5108064;27;19919;-79
2021/03/15 02:46:17;;;;;;;;;;;6.00;99.90;;;;;;5118592;27;20398;-79
2021/03/15 02:48:43;;;;;;;;;;;6.10;99.90;;;;;;5115900;27;19915;-79
2021/03/15 02:51:10;;;;;;;;;;;6.10;99.90;;;;;;5136204;27;19919;-79
2021/03/15 02:53:36;;;;;;;;;;;6.10;99.90;;;;;;5116354;28;20302;-79
2021/03/15 02:56:05;;;;;;;;;;;6.10;99.90;;;;;;5135347;27;19975;-79
2021/03/15 02:58:32;;;;;;;;;;;6.20;99.90;;;;;;5135793;28;19911;-79
2021/03/15 03:00:58;;;;;;;;;;;6.20;99.90;;;;;;5136611;27;20462;-79
2021/03/15 03:03:24;;;;;;;;;;;6.20;99.90;;;;;;5135301;28;19952;-79
2021/03/15 03:05:56;;;;;;;;;;;6.30;99.90;;;;;;5115479;28;19923;-79
2021/03/15 03:08:22;;;;;;;;;;;6.30;99.90;;;;;;5116510;28;19943;-80
2021/03/15 03:10:49;;;;;;;;;;;6.30;99.90;;;;;;5135604;28;19919;-79
2021/03/15 03:13:20;;;;;;;;;;;6.30;99.90;;;;;;5115661;28;19911;-79
2021/03/15 03:15:46;;;;;;;;;;;6.30;99.90;;;;;;5136295;28;20363;-79
2021/03/15 03:18:15;;;;;;;;;;;6.30;99.90;;;;;;5131828;28;19919;-80
2021/03/15 03:20:44;;;;;;;;;;;6.30;99.90;;;;;;5135721;28;19911;-79
2021/03/15 03:23:10;;;;;;;;;;;6.30;99.90;;;;;;5134881;27;20022;-79
2021/03/15 03:25:36;;;;;;;;;;;6.40;99.90;;;;;;5116857;28;19923;-79
2021/03/15 03:28:03;;;;;;;;;;;6.40;99.90;;;;;;5133894;28;19908;-79
2021/03/15 03:30:29;;;;;;;;;;;6.40;99.90;;;;;;5127569;27;20015;-79
2021/03/15 03:32:57;;;;;;;;;;;6.40;99.90;;;;;;5135386;27;19960;-79
2021/03/15 03:35:22;;;;;;;;;;;6.40;99.90;;;;;;5133824;27;19967;-79
2021/03/15 03:37:48;;;;;;;;;;;6.50;99.90;;;;;;5120660;27;19975;-79
2021/03/15 03:40:17;;;;;;;;;;;6.50;99.90;;;;;;5140155;27;19915;-79
2021/03/15 03:42:43;;;;;;;;;;;6.50;99.90;;;;;;5138026;27;19919;-79
2021/03/15 03:45:09;;;;;;;;;;;6.50;99.90;;;;;;5138455;27;20345;-79
2021/03/15 03:47:36;;;;;;;;;;;6.60;99.90;;;;;;5137792;27;19917;-79
2021/03/15 03:50:01;;;;;;;;;;;6.60;99.90;;;;;;5121633;27;19907;-79
2021/03/15 03:52:29;;;;;;;;;;;6.60;99.90;;;;;;5120203;27;19912;-79
2021/03/15 03:55:00;;;;;;;;;;;6.60;99.90;;;;;;5138084;27;19974;-78
2021/03/15 03:57:31;;;;;;;;;;;6.60;99.90;;;;;;5143845;27;19919;-78
2021/03/15 03:59:59;;;;;;;;;;;6.60;99.90;;;;;;5129603;27;19914;-79
2021/03/15 04:02:25;;;;;;;;;;;6.60;99.90;;;;;;5125897;27;20260;-79
2021/03/15 04:04:56;;;;;;;;;;;6.60;99.90;;;;;;5137792;27;19968;-79
2021/03/15 04:07:24;;;;;;;;;;;6.60;99.90;;;;;;5138352;27;19912;-78
2021/03/15 04:09:52;;;;;;;;;;;6.60;99.90;;;;;;5120232;27;19907;-79
2021/03/15 04:12:20;;;;;;;;;;;6.60;99.90;;;;;;5138027;27;19911;-78
2021/03/15 04:14:50;;;;;;;;;;;6.60;99.90;;;;;;5137400;27;19953;-79
2021/03/15 04:17:20;;;;;;;;;;;6.60;99.90;;;;;;5137722;27;19912;-79
2021/03/15 04:19:47;;;;;;;;;;;6.60;99.90;;;;;;5120361;27;20337;-79
2021/03/15 04:22:13;;;;;;;;;;;6.60;99.90;;;;;;5138613;27;19919;-79
2021/03/15 04:24:41;;;;;;;;;;;6.60;99.90;;;;;;5147280;27;19911;-80
2021/03/15 04:27:07;;;;;;;;;;;6.60;99.90;;;;;;5138767;27;20126;-79
2021/03/15 04:29:33;;;;;;;;;;;6.60;99.90;;;;;;5137617;27;20408;-79
2021/03/15 04:32:00;;;;;;;;;;;6.60;99.90;;;;;;5120395;27;20291;-78
2021/03/15 04:34:26;;;;;;;;;;;6.50;99.90;;;;;;5144672;27;19912;-79
2021/03/15 04:36:52;;;;;;;;;;;6.50;99.90;;;;;;5141380;27;19931;-79
2021/03/15 04:39:18;;;;;;;;;;;6.50;99.90;;;;;;5121398;27;20389;-79
2021/03/15 04:41:44;;;;;;;;;;;6.50;99.90;;;;;;5137914;27;19939;-79
2021/03/15 04:44:11;;;;;;;;;;;6.50;99.90;;;;;;5118877;27;19923;-79
2021/03/15 04:46:37;;;;;;;;;;;6.50;99.90;;;;;;5118339;27;20375;-79
2021/03/15 04:49:07;;;;;;;;;;;6.50;99.90;;;;;;5139065;27;19918;-79
2021/03/15 04:51:33;;;;;;;;;;;6.50;99.90;;;;;;5135998;27;19922;-79
2021/03/15 04:53:59;;;;;;;;;;;6.50;99.90;;;;;;5120189;27;19965;-79
2021/03/15 04:56:25;;;;;;;;;;;6.40;99.90;;;;;;5136460;27;19912;-80
2021/03/15 04:58:52;;;;;;;;;;;6.40;99.90;;;;;;5138548;27;19931;-79
2021/03/15 05:01:19;;;;;;;;;;;6.40;99.90;;;;;;5143011;27;19912;-79
2021/03/15 05:03:48;;;;;;;;;;;6.40;99.90;;;;;;5146738;27;19915;-80
2021/03/15 05:06:14;;;;;;;;;;;6.40;99.90;;;;;;5125631;27;19911;-78
2021/03/15 05:08:49;;;;;;;;;;;6.40;99.90;;;;;;5145496;27;19912;-79
2021/03/15 05:11:16;;;;;;;;;;;6.40;99.90;;;;;;5140723;27;20383;-79
2021/03/15 05:13:43;;;;;;;;;;;6.40;99.90;;;;;;5146365;27;19914;-79
2021/03/15 05:16:09;;;;;;;;;;;6.40;99.90;;;;;;5145588;27;19911;-79
2021/03/15 05:18:35;;;;;;;;;;;6.40;99.90;;;;;;5147032;27;19961;-79
2021/03/15 05:21:01;;;;;;;;;;;6.40;99.90;;;;;;5146375;27;19912;-79
2021/03/15 05:23:27;;;;;;;;;;;6.40;99.90;;;;;;5129483;27;19987;-79
2021/03/15 05:25:53;;;;;;;;;;;6.40;99.90;;;;;;5149801;27;20318;-79
2021/03/15 05:28:21;;;;;;;;;;;6.40;99.90;;;;;;5153944;27;19908;-79
2021/03/15 05:30:47;;;;;;;;;;;6.30;99.90;;;;;;5145634;27;20017;-79
2021/03/15 05:33:14;;;;;;;;;;;6.30;99.90;;;;;;5145570;27;20363;-78
2021/03/15 05:35:43;;;;;;;;;;;6.30;99.90;;;;;;5145384;27;19911;-79
2021/03/15 05:38:09;;;;;;;;;;;6.30;99.90;;;;;;5140061;27;19911;-79
2021/03/15 05:40:37;;;;;;;;;;;6.30;99.90;;;;;;5137584;27;20280;-79
2021/03/15 05:43:05;;;;;;;;;;;6.30;99.90;;;;;;5135860;27;19945;-79
2021/03/15 05:45:52;;;;;;;;;;;6.30;99.90;;;;;;5118502;27;19931;-79
2021/03/15 05:48:23;;;;;;;;;;;6.30;99.90;;;;;;5136770;27;20316;-80
2021/03/15 05:50:49;;;;;;;;;;;6.30;99.90;;;;;;5135399;27;19922;-79
2021/03/15 05:53:17;;;;;;;;;;;6.30;99.90;;;;;;5119203;27;19907;-79
2021/03/15 05:55:43;;;;;;;;;;;6.30;99.90;;;;;;5116659;27;19915;-79
2021/03/15 05:58:27;;;;;;;;;;;6.30;99.90;;;;;;5118840;28;19918;-79
2021/03/15 06:01:02;;;;;;;;;;;6.20;99.90;;;;;;5116781;27;19982;-79
2021/03/15 06:03:47;;;;;;;;;;;6.20;99.90;;;;;;5137439;27;20006;-79
2021/03/15 06:06:16;;;;;;;;;;;6.20;99.90;;;;;;5117289;27;20765;-79
2021/03/15 06:08:44;;;;;;;;;;;6.20;99.90;;;;;;5136980;27;19922;-80
2021/03/15 06:11:16;;;;;;;;;;;6.20;99.90;;;;;;5117606;27;20302;-79
2021/03/15 06:13:42;;;;;;;;;;;6.30;99.90;;;;;;5116909;27;19925;-79
2021/03/15 06:16:09;;;;;;;;;;;6.30;99.90;;;;;;5136691;27;19907;-79
2021/03/15 06:18:35;;;;;;;;;;;6.30;99.90;;;;;;5133914;27;19990;-79
2021/03/15 06:21:01;;;;;;;;;;;6.30;99.90;;;;;;5137280;27;20010;-79
2021/03/15 06:23:27;;;;;;;;;;;6.30;99.90;;;;;;5135250;27;19911;-79
2021/03/15 06:25:54;;;;;;;;;;;6.40;99.90;;;;;;5134233;27;19911;-79
2021/03/15 06:28:20;;;;;;;;;;;6.40;99.90;;;;;;5117427;27;19907;-79
2021/03/15 06:30:47;;;;;;;;;;;6.40;99.90;;;;;;5115678;27;20377;-80
2021/03/15 06:33:13;;;;;;;;;;;6.40;99.90;;;;;;5117949;27;19964;-79
2021/03/15 06:35:43;;;;;;;;;;;6.50;99.90;;;;;;5134728;27;19916;-79
2021/03/15 06:38:08;;;;;;;;;;;6.50;99.90;;;;;;5136767;27;19911;-79
2021/03/15 06:40:34;;;;;;;;;;;6.50;99.90;;;;;;5135120;27;19912;-79
2021/03/15 06:43:03;;;;;;;;;;;6.50;99.90;;;;;;5138995;27;19934;-81
2021/03/15 06:45:29;;;;;;;;;;;6.50;99.90;;;;;;5141439;27;19908;-80
2021/03/15 06:47:54;;;;;;;;;;;6.60;99.90;;;;;;5141215;27;20405;-81
2021/03/15 06:50:20;;;;;;;;;;;6.70;99.90;;;;;;5123286;28;19911;-81
2021/03/15 06:52:45;;;;;;;;;;;6.80;99.90;;;;;;5141026;27;19919;-80
2021/03/15 06:55:11;;;;;;;;;;;7.00;99.90;;;;;;5123684;27;20303;-80
2021/03/15 06:57:36;;;;;;;;;;;7.20;99.90;;;;;;5140312;28;19911;-81
2021/03/15 07:00:02;;;;;;;;;;;9.20;99.90;;;;;;5125871;28;20299;-81
2021/03/15 07:02:31;;;;;;;;;;;10.80;99.90;;;;;;5137968;28;19915;-81
2021/03/15 07:05:06;;;;;;;;;;;10.70;99.90;;;;;;5129995;27;19926;-81
2021/03/15 07:07:32;;;;;;;;;;;12.90;99.90;;;;;;5140005;28;19921;-81
2021/03/15 07:09:57;;;;;;;;;;;16.90;99.90;;;;;;5146299;27;20002;-81
2021/03/15 07:12:24;;;;;;;;;;;18.50;99.90;;;;;;5147963;27;20349;-81
2021/03/15 07:14:50;;;;;;;;;;;19.40;99.90;;;;;;5124059;27;19940;-81
2021/03/15 07:17:23;;;;;;;;;;;18.20;99.90;;;;;;5142351;27;19947;-82
2021/03/15 07:19:49;;;;;;;;;;;17.50;99.90;;;;;;5113622;28;19923;-81
2021/03/15 07:22:24;;;;;;;;;;;16.70;99.90;;;;;;5138902;27;20279;-81
2021/03/15 07:25:02;;;;;;;;;;;16.50;99.90;;;;;;5103451;28;19916;-81
2021/03/15 07:27:30;;;;;;;;;;;16.30;99.90;;;;;;5128884;27;20380;-81
2021/03/15 07:29:56;;;;;;;;;;;15.30;99.90;;;;;;5124678;27;19911;-81
2021/03/15 07:32:38;;;;;;;;;;;14.80;99.90;;;;;;5142300;27;19922;-81
2021/03/15 07:35:39;;;;;;;;;;;16.70;99.90;;;;;;5142248;27;19911;-81
2021/03/15 07:38:05;;;;;;;;;;;16.70;99.90;;;;;;5041224;28;19916;-81
2021/03/15 07:40:32;;;;;;;;;;;16.40;99.90;;;;;;5124113;27;20015;-82
2021/03/15 07:42:59;;;;;;;;;;;17.50;99.90;;;;;;5125774;27;19938;-81
2021/03/15 07:45:29;;;;;;;;;;;19.20;99.90;;;;;;5123347;27;19915;-81
2021/03/15 07:47:54;;;;;;;;;;;22.50;99.90;;;;;;5142012;27;19911;-82
2021/03/15 07:50:20;;;;;;;;;;;24.30;99.90;;;;;;5137898;27;20323;-81
2021/03/15 07:52:45;;;;;;;;;;;26.80;99.90;;;;;;5152513;27;19997;-82
2021/03/15 07:55:11;;;;;;;;;;;26.80;91.30;;;;;;5141860;27;19915;-81
2021/03/15 07:57:36;;;;;;;;;;;26.10;90.00;;;;;;5122923;27;19912;-81
2021/03/15 08:00:02;;;;;;;;;;;24.80;82.60;;;;;;5139869;27;19937;-82
2021/03/15 08:02:28;;;;;;;;;;;25.40;86.20;;;;;;5142197;27;19964;-81
2021/03/15 08:04:54;;;;;;;;;;;23.30;78.50;;;;;;5120751;27;19916;-82
2021/03/15 08:07:21;;;;;;;;;;;24.80;80.90;;;;;;5123505;27;19912;-81
2021/03/15 08:09:52;;;;;;;;;;;25.00;77.30;;;;;;5121721;27;19968;-81
2021/03/15 08:12:18;;;;;;;;;;;22.90;74.10;;;;;;5122938;27;19911;-80
2021/03/15 08:14:46;;;;;;;;;;;20.70;76.10;;;;;;5138859;27;19916;-81
2021/03/15 08:17:15;;;;;;;;;;;19.00;76.00;;;;;;5149004;27;19921;-81
2021/03/15 08:19:41;;;;;;;;;;;20.20;77.60;;;;;;5132311;27;19943;-81
2021/03/15 08:22:09;;;;;;;;;;;20.20;79.70;;;;;;5135015;27;19916;-81
2021/03/15 08:24:36;;;;;;;;;;;19.40;78.60;;;;;;5133476;27;19919;-82
2021/03/15 08:27:04;;;;;;;;;;;17.90;79.00;;;;;;5119096;27;19994;-81
2021/03/15 08:29:32;;;;;;;;;;;16.30;80.00;;;;;;5136278;27;19915;-82
2021/03/15 08:31:58;;;;;;;;;;;16.20;82.60;;;;;;5119590;27;19990;-80
2021/03/15 08:34:24;;;;;;;;;;;15.50;83.20;;;;;;5138373;27;19947;-81
2021/03/15 08:36:50;;;;;;;;;;;14.90;84.50;;;;;;5139239;27;19911;-80
2021/03/15 08:39:24;;;;;;;;;;;14.20;86.10;;;;;;5154310;27;19917;-80
2021/03/15 08:42:10;;;;;;;;;;;15.70;89.20;;;;;;5140283;27;19972;-81
2021/03/15 08:44:39;;;;;;;;;;;16.30;87.10;;;;;;5141862;27;19945;-81
2021/03/15 08:47:04;;;;;;;;;;;17.50;88.60;;;;;;5132553;27;19899;-80
2021/03/15 08:49:31;;;;;;;;;;;16.70;85.50;;;;;;5142301;27;19924;-80
2021/03/15 08:51:57;;;;;;;;;;;15.80;86.30;;;;;;5131745;27;19923;-81
2021/03/15 08:54:38;;;;;;;;;;;14.90;87.80;;;;;;5120413;27;20804;-80
2021/03/15 08:57:04;;;;;;;;;;;14.10;88.60;;;;;;5124734;27;19919;-82
2021/03/15 08:59:31;;;;;;;;;;;13.20;90.20;;;;;;5107527;27;19919;-81
2021/03/15 09:02:00;;;;;;;;;;;13.20;91.50;;;;;;5122464;27;19911;-81
2021/03/15 09:04:40;;;;;;;;;;;15.80;92.80;;;;;;5136606;27;19922;-81
2021/03/15 09:07:24;;;;;;;;;;;16.80;90.90;;;;;;5121569;28;19994;-81
2021/03/15 09:09:50;;;;;;;;;;;18.10;91.00;;;;;;5118203;27;19957;-82
2021/03/15 09:12:16;;;;;;;;;;;20.90;90.60;;;;;;5141521;27;20402;-82
2021/03/15 09:14:43;;;;;;;;;;;19.50;88.60;;;;;;5141612;27;19915;-81
2021/03/15 09:17:15;;;;;;;;;;;17.80;89.00;;;;;;5137461;27;19936;-81
2021/03/15 09:19:44;;;;;;;;;;;16.30;90.10;;;;;;5131535;27;20343;-81
2021/03/15 09:22:15;;;;;;;;;;;15.10;90.50;;;;;;5122210;27;20384;-80
2021/03/15 09:24:48;;;;;;;;;;;14.30;91.10;;;;;;5119840;28;19938;-80
2021/03/15 09:27:20;;;;;;;;;;;13.80;91.70;;;;;;5138693;27;19908;-81
2021/03/15 09:29:52;;;;;;;;;;;13.40;92.30;;;;;;5119810;27;19918;-80
2021/03/15 09:32:18;;;;;;;;;;;13.20;92.90;;;;;;5108769;28;20283;-81
2021/03/15 09:34:43;;;;;;;;;;;12.90;93.70;;;;;;5111927;27;19913;-80
2021/03/15 09:37:10;;;;;;;;;;;12.80;94.00;;;;;;5122915;27;20312;-81
2021/03/15 09:40:17;;;;;;;;;;;12.50;94.30;;;;;;5121593;27;20268;-81
2021/03/15 09:46:15;;;;;;;;;;;;;;;;;;;;;
2021/03/15 09:52:16;;;;;;;;;;;18.50;93.00;;;;;;5121523;27;19925;-81
2021/03/15 09:54:45;;;;;;;;;;;20.00;92.40;;;;;;5119825;27;19925;-81
2021/03/15 09:57:11;;;;;;;;;;;19.60;91.30;;;;;;5140580;27;20286;-81
2021/03/15 09:59:37;;;;;;;;;;;20.90;89.30;;;;;;5139754;27;19918;-80
2021/03/15 10:02:02;;;;;;;;;;;19.60;84.60;;;;;;5138998;27;19912;-80
2021/03/15 10:04:33;;;;;;;;;;;18.10;83.80;;;;;;5134885;27;19915;-80
2021/03/15 10:06:59;;;;;;;;;;;16.80;85.00;;;;;;5119769;27;19911;-81
2021/03/15 10:09:28;;;;;;;;;;;15.40;85.00;;;;;;5118850;27;19919;-80
2021/03/15 10:11:55;;;;;;;;;;;14.30;86.60;;;;;;5129886;27;19937;-81
2021/03/15 10:14:21;;;;;;;;;;;13.50;88.40;;;;;;5132460;27;19977;-81
2021/03/15 10:17:00;;;;;;;;;;;13.20;90.10;;;;;;5122066;27;19911;-82
2021/03/15 10:19:32;;;;;;;;;;;15.70;91.90;;;;;;5126481;27;19916;-82
2021/03/15 10:22:14;;;;;;;;;;;18.40;91.50;;;;;;5142065;27;19916;-81
2021/03/15 10:24:40;;;;;;;;;;;20.60;90.60;;;;;;5120525;27;20458;-83
2021/03/15 10:27:16;;;;;;;;;;;22.10;89.20;;;;;;5133284;27;20451;-83
2021/03/15 10:29:42;;;;;;;;;;;21.10;86.50;;;;;;5127203;27;19915;-82
2021/03/15 10:32:08;;;;;;;;;;;19.80;83.80;;;;;;5128641;27;20005;-81
2021/03/15 10:34:34;;;;;;;;;;;18.30;82.70;;;;;;5136269;27;20290;-82
2021/03/15 10:37:00;;;;;;;;;;;17.10;83.00;;;;;;5139082;27;19947;-82
2021/03/15 10:39:26;;;;;;;;;;;15.80;82.60;;;;;;5138287;27;19912;-81
2021/03/15 10:41:52;;;;;;;;;;;14.60;83.00;;;;;;5111549;27;19915;-82
2021/03/15 10:44:19;;;;;;;;;;;13.70;84.20;;;;;;5102501;28;19916;-81
2021/03/15 10:46:49;;;;;;;;;;;12.90;85.70;;;;;;5106897;28;20359;-81
2021/03/15 10:49:16;;;;;;;;;;;12.20;87.80;;;;;;5111780;28;19912;-81
2021/03/15 10:51:42;;;;;;;;;;;11.50;90.30;;;;;;5116970;27;19969;-80
2021/03/15 10:54:08;;;;;;;;;;;11.00;91.10;;;;;;5139979;27;19916;-81
2021/03/15 10:56:35;;;;;;;;;;;10.80;91.90;;;;;;5122105;28;20608;-81
2021/03/15 10:59:03;;;;;;;;;;;10.60;92.50;;;;;;5123594;28;19919;-80
2021/03/15 11:01:29;;;;;;;;;;;10.70;93.20;;;;;;5124960;28;19912;-81
2021/03/15 11:04:08;;;;;;;;;;;11.00;93.80;;;;;;5105693;28;20007;-82
2021/03/15 11:06:36;;;;;;;;;;;11.10;94.10;;;;;;5112221;28;20007;-80
2021/03/15 11:09:02;;;;;;;;;;;11.10;94.50;;;;;;5100717;28;19923;-81
2021/03/15 11:11:28;;;;;;;;;;;12.30;95.80;;;;;;5122984;28;19912;-81
2021/03/15 11:13:55;;;;;;;;;;;13.90;95.30;;;;;;5106009;28;19912;-82
2021/03/15 11:16:24;;;;;;;;;;;14.70;95.20;;;;;;5105941;28;19915;-83
2021/03/15 11:19:07;;;;;;;;;;;16.60;95.20;;;;;;5104798;28;20005;-82
2021/03/15 11:21:34;;;;;;;;;;;17.80;95.10;;;;;;5123456;28;19908;-82
2021/03/15 11:24:00;;;;;;;;;;;19.20;94.80;;;;;;5117752;28;19916;-82
2021/03/15 11:26:28;;;;;;;;;;;18.80;93.80;;;;;;5123758;28;19969;-82
2021/03/15 11:28:55;;;;;;;;;;;20.00;93.70;;;;;;5104044;28;20007;-83
2021/03/15 11:31:21;;;;;;;;;;;20.10;93.10;;;;;;5121159;28;20338;-83
2021/03/15 11:33:54;;;;;;;;;;;18.90;92.20;;;;;;5117064;28;19919;-82
2021/03/15 11:36:22;;;;;;;;;;;17.70;91.50;;;;;;5120772;28;19922;-82
2021/03/15 11:39:06;;;;;;;;;;;16.60;91.40;;;;;;5118638;28;19927;-81
2021/03/15 11:41:37;;;;;;;;;;;15.70;91.40;;;;;;5099138;28;19987;-80
2021/03/15 11:44:02;;;;;;;;;;;15.20;91.90;;;;;;5119364;28;19972;-81
2021/03/15 11:46:30;;;;;;;;;;;14.80;91.90;;;;;;5100045;28;19911;-81
2021/03/15 11:48:56;;;;;;;;;;;14.20;92.10;;;;;;5122564;28;19912;-81
2021/03/15 11:51:21;;;;;;;;;;;13.70;92.60;;;;;;5114234;28;19944;-82
2021/03/15 11:53:47;;;;;;;;;;;13.60;93.20;;;;;;5122661;28;19926;-83
2021/03/15 11:56:13;;;;;;;;;;;15.40;94.80;;;;;;5117899;28;19915;-81
2021/03/15 11:58:39;;;;;;;;;;;16.60;94.60;;;;;;5105250;28;19914;-82
2021/03/15 12:01:05;;;;;;;;;;;17.20;94.00;;;;;;5109714;28;19912;-80
2021/03/15 12:03:33;;;;;;;;;;;16.90;93.80;;;;;;5120630;28;19915;-81
2021/03/15 12:05:59;;;;;;;;;;;17.10;93.60;;;;;;5108816;28;19919;-82
2021/03/15 12:08:24;;;;;;;;;;;16.80;93.30;;;;;;5125157;28;20030;-81
2021/03/15 12:10:50;;;;;;;;;;;16.50;93.20;;;;;;5113366;28;19919;-81
2021/03/15 12:13:18;;;;;;;;;;;16.20;92.90;;;;;;5112610;28;19914;-82
2021/03/15 12:15:50;;;;;;;;;;;16.30;92.90;;;;;;5113389;28;20396;-82
2021/03/15 12:18:16;;;;;;;;;;;15.70;92.10;;;;;;5124774;27;19908;-82
2021/03/15 12:20:42;;;;;;;;;;;14.60;91.60;;;;;;5116998;28;20057;-81
2021/03/15 12:23:08;;;;;;;;;;;13.40;91.80;;;;;;5126121;28;19908;-81
2021/03/15 12:25:37;;;;;;;;;;;12.50;93.00;;;;;;5105819;28;19919;-81
2021/03/15 12:28:06;;;;;;;;;;;11.90;93.50;;;;;;5100119;28;19920;-81
2021/03/15 12:30:32;;;;;;;;;;;12.20;95.10;;;;;;5126392;28;19936;-82
2021/03/15 12:32:58;;;;;;;;;;;14.00;96.10;;;;;;5115969;28;19983;-82
2021/03/15 12:35:24;;;;;;;;;;;15.60;95.70;;;;;;5124935;28;20253;-82
2021/03/15 12:37:50;;;;;;;;;;;16.90;94.70;;;;;;5104086;28;19919;-81
2021/03/15 12:40:16;;;;;;;;;;;17.80;93.70;;;;;;5114270;28;19908;-82
2021/03/15 12:42:42;;;;;;;;;;;18.50;92.70;;;;;;5121728;28;19912;-82
2021/03/15 12:45:08;;;;;;;;;;;19.10;92.20;;;;;;5120052;28;19918;-83
2021/03/15 12:47:34;;;;;;;;;;;19.70;91.40;;;;;;5108138;28;19915;-82
2021/03/15 12:49:59;;;;;;;;;;;20.00;90.70;;;;;;5105434;28;19914;-82
2021/03/15 12:52:27;;;;;;;;;;;20.40;90.40;;;;;;5101661;28;19912;-83
2021/03/15 12:54:55;;;;;;;;;;;20.60;88.30;;;;;;5107117;28;20495;-82
2021/03/15 12:57:21;;;;;;;;;;;20.70;87.30;;;;;;5120052;28;19922;-82
2021/03/15 12:59:51;;;;;;;;;;;21.10;86.70;;;;;;5117760;28;19942;-82
2021/03/15 13:02:20;;;;;;;;;;;21.20;85.00;;;;;;5104194;28;19951;-82
2021/03/15 13:04:48;;;;;;;;;;;20.20;82.50;;;;;;5127280;28;19939;-82
2021/03/15 13:07:16;;;;;;;;;;;19.00;83.00;;;;;;5120145;28;20558;-80
2021/03/15 13:09:41;;;;;;;;;;;17.80;82.60;;;;;;5120791;28;20291;-80
2021/03/15 13:12:15;;;;;;;;;;;16.60;82.10;;;;;;5120287;28;19972;-81
2021/03/15 13:14:40;;;;;;;;;;;16.00;83.30;;;;;;5106303;28;19912;-80
2021/03/15 13:17:06;;;;;;;;;;;16.60;83.30;;;;;;5121345;28;20003;-81
2021/03/15 13:19:31;;;;;;;;;;;17.30;82.10;;;;;;5115929;28;19960;-81
2021/03/15 13:21:57;;;;;;;;;;;17.80;80.40;;;;;;5086374;28;19912;-81
2021/03/15 13:24:22;;;;;;;;;;;18.20;78.50;;;;;;5082572;28;19912;-81
2021/03/15 13:26:49;;;;;;;;;;;18.50;76.60;;;;;;5101330;28;19914;-81
2021/03/15 13:29:15;;;;;;;;;;;18.60;75.00;;;;;;5122650;28;19916;-80
2021/03/15 13:31:42;;;;;;;;;;;17.80;72.80;;;;;;5123772;28;19976;-80
2021/03/15 13:34:08;;;;;;;;;;;17.00;72.90;;;;;;5123443;28;19912;-81
2021/03/15 13:36:36;;;;;;;;;;;16.60;71.90;;;;;;5117267;28;19995;-81
2021/03/15 13:39:03;;;;;;;;;;;16.90;72.00;;;;;;5110324;27;20108;-81
2021/03/15 13:41:31;;;;;;;;;;;16.80;72.30;;;;;;5118655;28;19969;-81
2021/03/15 13:43:56;;;;;;;;;;;17.20;73.00;;;;;;5111810;28;20623;-81
2021/03/15 13:46:22;;;;;;;;;;;17.50;71.80;;;;;;5121410;28;19939;-81
2021/03/15 13:48:47;;;;;;;;;;;17.40;70.20;;;;;;5118634;28;19918;-81
2021/03/15 13:51:15;;;;;;;;;;;17.40;68.80;;;;;;5120821;28;19918;-81
2021/03/15 13:53:41;;;;;;;;;;;16.70;68.70;;;;;;5117203;28;19907;-80
2021/03/15 13:56:06;;;;;;;;;;;16.90;69.70;;;;;;5109932;28;19916;-81
2021/03/15 13:58:32;;;;;;;;;;;17.00;69.20;;;;;;5094552;28;19920;-80
2021/03/15 14:00:57;;;;;;;;;;;16.70;68.90;;;;;;5098628;28;19915;-80
2021/03/15 14:03:27;;;;;;;;;;;16.40;68.90;;;;;;5122726;28;19920;-80
2021/03/15 14:05:52;;;;;;;;;;;16.20;68.70;;;;;;5107020;28;19990;-80
2021/03/15 14:08:20;;;;;;;;;;;15.90;67.80;;;;;;5112778;28;19952;-80
2021/03/15 14:10:48;;;;;;;;;;;15.40;67.40;;;;;;5115269;28;19916;-81
2021/03/15 14:13:14;;;;;;;;;;;15.10;67.60;;;;;;5101771;28;19908;-82
2021/03/15 14:15:42;;;;;;;;;;;14.70;68.10;;;;;;5116257;28;19911;-83
2021/03/15 14:18:10;;;;;;;;;;;14.20;68.20;;;;;;5112797;28;19951;-83
2021/03/15 14:20:37;;;;;;;;;;;13.60;68.70;;;;;;5118014;28;19947;-80
2021/03/15 14:23:04;;;;;;;;;;;13.10;69.60;;;;;;5100189;28;19912;-83
2021/03/15 14:25:29;;;;;;;;;;;12.70;71.50;;;;;;5102556;28;19912;-81
2021/03/15 14:27:55;;;;;;;;;;;12.60;72.70;;;;;;5121245;28;19942;-82
2021/03/15 14:30:23;;;;;;;;;;;12.60;73.80;;;;;;5121471;28;19998;-81
2021/03/15 14:32:51;;;;;;;;;;;12.50;74.80;;;;;;5115067;28;19918;-81
2021/03/15 14:35:16;;;;;;;;;;;12.30;75.70;;;;;;5121341;28;19915;-81